createdAt,value
2022-10-18T00:00:11.836Z,46.49
2022-10-18T00:02:57.967Z,46.46
2022-10-18T00:05:43.985Z,46.78
2022-10-18T00:08:30.227Z,46.82
2022-10-18T00:11:16.225Z,46.68
2022-10-18T00:14:02.481Z,47.01
2022-10-18T00:16:48.515Z,46.71
2022-10-18T00:19:34.733Z,46.95
2022-10-18T00:22:20.682Z,46.95
2022-10-18T00:25:07.857Z,47.22
2022-10-18T00:27:53.954Z,46.84
2022-10-18T00:30:39.805Z,46.91
2022-10-18T00:33:25.616Z,46.59
2022-10-18T00:36:12.261Z,47.07
2022-10-18T00:38:58.706Z,47.13
2022-10-18T00:41:45.396Z,47.15
2022-10-18T00:44:32.001Z,47.04
2022-10-18T00:47:18.337Z,46.97
2022-10-18T00:50:05.712Z,46.92
2022-10-18T00:52:54.869Z,46.99
2022-10-18T00:55:41.009Z,46.93
2022-10-18T00:58:26.989Z,47.06
2022-10-18T01:01:12.903Z,47.18
2022-10-18T01:03:58.865Z,47.51
2022-10-18T01:06:57.965Z,47.33
2022-10-18T01:10:02.175Z,47.20
2022-10-18T01:13:06.791Z,47.17
2022-10-18T01:16:17.871Z,47.23
2022-10-18T01:19:36.089Z,47.34
2022-10-18T01:22:25.823Z,47.56
2022-10-18T01:25:34.186Z,47.23
2022-10-18T01:28:38.546Z,47.64
2022-10-18T01:31:35.424Z,47.27
2022-10-18T01:34:21.945Z,47.30
2022-10-18T01:37:09.959Z,47.30
2022-10-18T01:39:57.412Z,47.50
2022-10-18T01:42:43.862Z,47.74
2022-10-18T01:45:30.889Z,47.31
2022-10-18T01:48:17.151Z,47.56
2022-10-18T01:51:03.159Z,47.69
2022-10-18T01:53:48.964Z,47.77
2022-10-18T01:56:44.439Z,47.56
2022-10-18T01:59:54.003Z,47.44
2022-10-18T02:02:59.929Z,47.52
2022-10-18T02:05:56.793Z,47.60
2022-10-18T02:09:21.220Z,47.50
2022-10-18T02:12:09.964Z,47.81
2022-10-18T02:14:56.758Z,47.94
2022-10-18T02:17:44.481Z,47.72
2022-10-18T02:20:32.416Z,48.03
2022-10-18T02:23:22.937Z,47.90
2022-10-18T02:26:09.227Z,47.71
2022-10-18T02:28:55.456Z,48.10
2022-10-18T02:31:46.682Z,47.92
2022-10-18T02:34:37.716Z,47.96
2022-10-18T02:37:24.797Z,48.05
2022-10-18T02:40:11.475Z,48.02
2022-10-18T02:42:58.375Z,48.15
2022-10-18T02:45:44.563Z,47.83
2022-10-18T02:48:30.483Z,47.94
2022-10-18T02:51:16.862Z,48.16
2022-10-18T02:54:02.769Z,48.28
2022-10-18T02:56:48.791Z,48.31
2022-10-18T02:59:34.814Z,48.28
2022-10-18T03:02:20.748Z,48.42
2022-10-18T03:05:06.854Z,48.45
2022-10-18T03:07:53.038Z,48.18
2022-10-18T03:10:38.997Z,48.07
2022-10-18T03:13:24.996Z,48.18
2022-10-18T03:16:11.962Z,48.28
2022-10-18T03:18:57.917Z,48.15
2022-10-18T03:21:43.794Z,48.06
2022-10-18T03:24:29.905Z,48.39
2022-10-18T03:27:15.919Z,48.53
2022-10-18T03:30:01.773Z,48.07
2022-10-18T03:32:48.038Z,48.34
2022-10-18T03:35:33.825Z,48.27
2022-10-18T03:38:19.783Z,48.32
2022-10-18T03:41:06.325Z,48.74
2022-10-18T03:43:52.437Z,48.47
2022-10-18T03:46:38.286Z,48.38
2022-10-18T03:49:24.318Z,48.24
2022-10-18T03:52:10.169Z,48.37
2022-10-18T03:54:56.279Z,48.73
2022-10-18T03:57:42.167Z,48.32
2022-10-18T04:00:28.245Z,48.83
2022-10-18T04:03:14.298Z,48.92
2022-10-18T04:06:00.835Z,48.78
2022-10-18T04:08:47.002Z,48.57
2022-10-18T04:11:32.775Z,48.95
2022-10-18T04:14:18.726Z,49.04
2022-10-18T04:17:04.902Z,48.93
2022-10-18T04:19:51.053Z,48.73
2022-10-18T04:22:36.965Z,48.62
2022-10-18T04:25:23.157Z,49.01
2022-10-18T04:28:09.232Z,48.83
2022-10-18T04:30:55.301Z,48.44
2022-10-18T04:33:41.113Z,49.00
2022-10-18T04:36:26.940Z,48.66
2022-10-18T04:39:12.852Z,49.14
2022-10-18T04:41:59.078Z,48.69
2022-10-18T04:44:44.860Z,49.25
2022-10-18T04:47:31.329Z,48.71
2022-10-18T04:50:17.596Z,48.84
2022-10-18T04:53:03.609Z,48.82
2022-10-18T04:55:50.275Z,48.92
2022-10-18T04:58:36.217Z,48.90
2022-10-18T05:01:22.148Z,48.89
2022-10-18T05:04:09.605Z,49.00
2022-10-18T05:06:55.423Z,49.44
2022-10-18T05:09:41.401Z,48.91
2022-10-18T05:12:27.371Z,48.86
2022-10-18T05:15:13.273Z,49.01
2022-10-18T05:17:59.328Z,49.40
2022-10-18T05:20:45.169Z,48.76
2022-10-18T05:23:31.073Z,49.14
2022-10-18T05:26:16.978Z,49.04
2022-10-18T05:29:03.822Z,49.05
2022-10-18T05:31:50.351Z,49.20
2022-10-18T05:34:36.251Z,49.67
2022-10-18T05:37:27.497Z,49.05
2022-10-18T05:40:14.612Z,49.32
2022-10-18T05:50:28.968Z,51.29
2022-10-18T05:53:35.339Z,51.13
2022-10-18T05:56:21.039Z,51.12
2022-10-18T05:59:12.035Z,50.87
2022-10-18T06:01:58.327Z,51.15
2022-10-18T06:04:44.210Z,50.73
2022-10-18T06:07:30.395Z,50.78
2022-10-18T06:10:16.732Z,50.94
2022-10-18T06:13:02.815Z,50.75
2022-10-18T06:15:49.003Z,50.50
2022-10-18T06:18:34.922Z,50.35
2022-10-18T06:21:21.979Z,50.16
2022-10-18T06:24:08.066Z,50.64
2022-10-18T06:26:53.902Z,50.30
2022-10-18T06:29:40.083Z,50.56
2022-10-18T06:32:26.075Z,50.74
2022-10-18T06:35:12.101Z,50.60
2022-10-18T06:37:58.075Z,50.33
2022-10-18T06:40:44.103Z,50.54
2022-10-18T06:43:30.194Z,50.29
2022-10-18T06:46:16.456Z,50.58
2022-10-18T06:49:02.609Z,50.71
2022-10-18T06:51:48.375Z,50.68
2022-10-18T06:54:34.772Z,50.52
2022-10-18T06:57:21.234Z,50.43
2022-10-18T07:00:08.145Z,50.47
2022-10-18T07:02:54.144Z,50.66
2022-10-18T07:05:40.130Z,50.63
2022-10-18T07:08:26.022Z,50.39
2022-10-18T07:11:20.501Z,50.16
2022-10-18T07:14:06.476Z,50.68
2022-10-18T07:16:52.338Z,50.24
2022-10-18T07:19:38.225Z,50.46
2022-10-18T07:22:27.047Z,50.38
2022-10-18T07:25:15.957Z,50.70
2022-10-18T07:28:02.449Z,50.42
2022-10-18T07:30:48.790Z,50.71
2022-10-18T07:33:35.761Z,50.08
2022-10-18T07:36:22.301Z,50.76
2022-10-18T07:39:08.439Z,50.28
2022-10-18T07:41:54.485Z,50.09
2022-10-18T07:44:40.693Z,50.02
2022-10-18T07:47:28.974Z,50.68
2022-10-18T07:50:17.091Z,50.37
2022-10-18T07:53:02.982Z,50.03
2022-10-18T07:55:48.822Z,50.22
2022-10-18T07:58:34.809Z,50.02
2022-10-18T08:01:22.375Z,50.32
2022-10-18T08:04:11.651Z,49.94
2022-10-18T08:07:01.292Z,50.44
2022-10-18T08:09:47.353Z,49.89
2022-10-18T08:12:33.136Z,50.18
2022-10-18T08:15:20.234Z,49.93
2022-10-18T08:18:06.382Z,50.12
2022-10-18T08:20:52.278Z,49.62
2022-10-18T08:23:38.833Z,49.68
2022-10-18T08:26:24.748Z,49.78
2022-10-18T08:29:22.418Z,49.61
2022-10-18T08:32:09.079Z,49.50
2022-10-18T08:34:55.124Z,49.46
2022-10-18T08:37:41.279Z,49.05
2022-10-18T08:40:27.772Z,49.69
2022-10-18T08:44:04.690Z,49.27
2022-10-18T08:47:04.024Z,49.27
2022-10-18T08:49:57.043Z,48.92
2022-10-18T08:52:55.469Z,49.17
2022-10-18T08:55:54.928Z,49.37
2022-10-18T08:58:44.543Z,48.78
2022-10-18T09:01:36.358Z,48.81
2022-10-18T09:04:40.970Z,48.86
2022-10-18T09:07:33.364Z,48.71
2022-10-18T09:10:25.621Z,48.79
2022-10-18T09:13:32.061Z,48.61
2022-10-18T09:16:28.666Z,48.52
2022-10-18T09:19:29.955Z,48.50
2022-10-18T09:22:18.794Z,48.13
2022-10-18T09:25:21.333Z,48.11
2022-10-18T09:28:37.258Z,48.23
2022-10-18T09:31:35.245Z,48.14
2022-10-18T09:34:32.384Z,48.28
2022-10-18T09:37:19.890Z,48.34
2022-10-18T09:40:33.263Z,48.06
2022-10-18T09:43:20.826Z,48.83
2022-10-18T09:46:07.328Z,47.84
2022-10-18T09:49:00.684Z,47.53
2022-10-18T09:51:48.949Z,47.54
2022-10-18T09:54:40.548Z,46.81
2022-10-18T09:57:37.698Z,47.38
2022-10-18T10:00:29.910Z,46.98
2022-10-18T10:03:15.945Z,47.33
2022-10-18T10:06:17.362Z,47.11
2022-10-18T10:09:06.466Z,47.05
2022-10-18T10:11:52.472Z,46.99
2022-10-18T10:14:44.480Z,46.90
2022-10-18T10:17:31.483Z,47.06
2022-10-18T10:20:28.707Z,46.77
2022-10-18T10:23:22.575Z,44.40
2022-10-18T10:26:28.708Z,46.98
2022-10-18T10:29:45.699Z,46.88
2022-10-18T10:32:44.913Z,46.58
2022-10-18T10:35:52.524Z,46.68
2022-10-18T10:38:36.717Z,46.43
2022-10-18T10:41:24.342Z,46.39
2022-10-18T10:44:20.980Z,46.11
2022-10-18T10:47:07.618Z,46.12
2022-10-18T10:49:56.416Z,45.93
2022-10-18T10:52:47.342Z,45.96
2022-10-18T10:55:35.816Z,45.94
2022-10-18T10:58:22.824Z,45.43
2022-10-18T11:01:19.192Z,45.29
2022-10-18T11:04:26.943Z,45.74
2022-10-18T11:07:23.348Z,45.07
2022-10-18T11:10:13.874Z,45.15
2022-10-18T11:13:11.245Z,42.93
2022-10-18T11:16:05.457Z,44.64
2022-10-18T11:18:53.029Z,44.95
2022-10-18T11:21:39.908Z,44.65
2022-10-18T11:24:26.203Z,44.19
2022-10-18T11:27:40.570Z,43.83
2022-10-18T11:30:32.561Z,44.05
2022-10-18T11:34:03.553Z,43.73
2022-10-18T11:36:54.843Z,43.28
2022-10-18T11:40:01.228Z,43.85
2022-10-18T11:44:00.415Z,44.16
2022-10-18T11:46:55.984Z,43.07
2022-10-18T11:49:55.726Z,37.68
2022-10-18T11:52:54.041Z,43.25
2022-10-18T11:55:45.196Z,35.53
2022-10-18T11:59:26.312Z,42.15
2022-10-18T12:02:31.233Z,42.56
2022-10-18T12:05:23.440Z,42.54
2022-10-18T12:08:49.676Z,42.63
2022-10-18T12:11:49.387Z,41.39
2022-10-18T12:14:44.666Z,41.16
2022-10-18T12:17:49.806Z,41.55
2022-10-18T12:20:47.237Z,41.21
2022-10-18T12:23:47.482Z,41.10
2022-10-18T12:26:33.890Z,41.56
2022-10-18T12:29:32.049Z,41.36
2022-10-18T12:32:31.494Z,39.67
2022-10-18T12:35:19.456Z,41.16
2022-10-18T12:38:24.282Z,40.91
2022-10-18T12:41:20.828Z,38.89
2022-10-18T12:44:30.731Z,40.05
2022-10-18T12:47:26.272Z,39.44
2022-10-18T12:50:36.946Z,38.84
2022-10-18T12:53:27.453Z,38.96
2022-10-18T12:56:28.658Z,37.37
2022-10-18T12:59:14.698Z,38.87
2022-10-18T13:02:00.831Z,38.52
2022-10-18T13:04:48.250Z,37.80
2022-10-18T13:07:41.057Z,37.36
2022-10-18T13:10:34.039Z,37.91
2022-10-18T13:13:50.702Z,37.76
2022-10-18T13:16:58.624Z,35.78
2022-10-18T13:19:58.055Z,36.42
2022-10-18T13:23:03.428Z,36.35
2022-10-18T13:25:52.594Z,36.65
2022-10-18T13:28:59.461Z,36.48
2022-10-18T13:31:59.578Z,35.36
2022-10-18T13:34:45.532Z,35.58
2022-10-18T13:37:31.582Z,34.96
2022-10-18T13:40:25.081Z,34.29
2022-10-18T13:43:52.185Z,34.97
2022-10-18T13:46:38.747Z,34.78
2022-10-18T13:49:39.718Z,34.38
2022-10-18T13:52:32.367Z,34.21
2022-10-18T13:55:24.628Z,34.57
2022-10-18T13:58:25.002Z,34.29
2022-10-18T14:01:38.956Z,34.40
2022-10-18T14:04:30.937Z,33.47
2022-10-18T14:07:18.465Z,33.39
2022-10-18T14:10:05.363Z,33.32
2022-10-18T14:12:54.803Z,33.30
2022-10-18T14:15:42.173Z,33.37
2022-10-18T14:18:33.286Z,33.23
2022-10-18T14:21:28.775Z,33.00
2022-10-18T14:24:25.664Z,33.55
2022-10-18T14:27:23.472Z,33.61
2022-10-18T14:30:12.738Z,33.09
2022-10-18T14:32:59.664Z,33.43
2022-10-18T14:35:59.147Z,33.43
2022-10-18T14:39:06.068Z,33.77
2022-10-18T14:41:55.507Z,33.37
2022-10-18T14:44:41.749Z,33.89
2022-10-18T14:47:30.276Z,33.71
2022-10-18T14:50:30.540Z,33.50
2022-10-18T14:53:21.120Z,33.72
2022-10-18T14:56:08.361Z,34.01
2022-10-18T14:58:56.541Z,33.92
2022-10-18T15:02:02.103Z,33.89
2022-10-18T15:05:21.891Z,34.06
2022-10-18T15:08:09.790Z,33.93
2022-10-18T15:10:56.817Z,34.19
2022-10-18T15:16:33.750Z,34.49
2022-10-18T15:19:31.017Z,34.30
2022-10-18T15:22:38.249Z,34.27
2022-10-18T15:25:32.096Z,34.25
2022-10-18T15:28:28.652Z,34.32
2022-10-18T15:31:29.293Z,34.41
2022-10-18T15:34:27.221Z,34.76
2022-10-18T15:37:18.954Z,34.55
2022-10-18T15:40:23.477Z,34.91
2022-10-18T15:43:24.529Z,34.83
2022-10-18T15:46:30.153Z,34.75
2022-10-18T15:49:25.208Z,34.54
2022-10-18T15:52:33.818Z,34.92
2022-10-18T15:55:31.817Z,35.04
2022-10-18T15:58:32.081Z,35.10
2022-10-18T16:01:21.430Z,35.18
2022-10-18T16:04:23.872Z,35.25
2022-10-18T16:07:11.520Z,35.42
2022-10-18T16:09:57.524Z,35.50
2022-10-18T16:12:43.438Z,35.41
2022-10-18T16:15:29.249Z,35.51
2022-10-18T16:18:17.559Z,35.75
2022-10-18T16:21:03.551Z,35.99
2022-10-18T16:23:50.245Z,35.82
2022-10-18T16:26:36.381Z,35.99
2022-10-18T16:29:28.778Z,36.06
2022-10-18T16:32:14.738Z,36.02
2022-10-18T16:35:00.679Z,36.14
2022-10-18T16:37:46.660Z,36.15
2022-10-18T16:40:33.851Z,36.33
2022-10-18T16:43:23.105Z,36.58
2022-10-18T16:46:23.307Z,36.64
2022-10-18T16:52:04.533Z,36.64
2022-10-18T16:54:50.585Z,36.92
2022-10-18T16:57:36.452Z,37.12
2022-10-18T17:00:23.313Z,36.89
2022-10-18T17:03:09.681Z,37.06
2022-10-18T17:05:56.356Z,37.20
2022-10-18T17:08:42.556Z,37.28
2022-10-18T17:11:29.002Z,37.12
2022-10-18T17:14:14.829Z,37.55
2022-10-18T17:17:00.715Z,37.55
2022-10-18T17:19:47.260Z,37.61
2022-10-18T17:22:33.551Z,37.80
2022-10-18T17:25:19.743Z,37.66
2022-10-18T17:28:07.022Z,37.61
2022-10-18T17:30:53.212Z,37.78
2022-10-18T17:33:39.117Z,37.88
2022-10-18T17:36:25.124Z,37.88
2022-10-18T17:39:11.797Z,38.09
2022-10-18T17:41:57.941Z,37.99
2022-10-18T17:44:45.957Z,37.90
2022-10-18T17:47:32.188Z,38.28
2022-10-18T17:50:18.963Z,38.33
2022-10-18T17:53:04.886Z,38.26
2022-10-18T17:55:51.026Z,38.65
2022-10-18T17:58:37.255Z,38.53
2022-10-18T18:01:23.377Z,38.61
2022-10-18T18:04:09.692Z,38.65
2022-10-18T18:06:57.280Z,38.78
2022-10-18T18:09:43.560Z,38.79
2022-10-18T18:12:30.359Z,39.05
2022-10-18T18:15:17.401Z,39.04
2022-10-18T18:18:03.637Z,38.99
2022-10-18T18:20:54.514Z,39.21
2022-10-18T18:23:41.651Z,39.11
2022-10-18T18:26:30.591Z,39.26
2022-10-18T18:29:16.626Z,39.34
2022-10-18T18:32:03.479Z,39.11
2022-10-18T18:34:49.377Z,39.55
2022-10-18T18:37:35.502Z,39.67
2022-10-18T18:40:23.893Z,39.79
2022-10-18T18:43:22.709Z,39.69
2022-10-18T18:46:10.064Z,39.82
2022-10-18T18:48:59.422Z,39.76
2022-10-18T18:51:46.051Z,39.93
2022-10-18T18:54:32.306Z,39.77
2022-10-18T18:57:18.563Z,39.91
2022-10-18T19:00:05.400Z,39.94
2022-10-18T19:02:51.240Z,40.05
2022-10-18T19:05:38.093Z,40.08
2022-10-18T19:08:24.006Z,40.42
2022-10-18T19:11:13.675Z,40.71
2022-10-18T19:14:00.428Z,40.36
2022-10-18T19:16:51.818Z,40.55
2022-10-18T19:19:40.885Z,40.80
2022-10-18T19:22:26.827Z,40.52
2022-10-18T19:25:13.195Z,40.46
2022-10-18T19:27:59.187Z,40.58
2022-10-18T19:30:49.994Z,40.79
2022-10-18T19:33:48.423Z,40.80
2022-10-18T19:36:42.957Z,40.89
2022-10-18T19:39:34.330Z,41.10
2022-10-18T19:42:26.123Z,41.30
2022-10-18T19:45:13.376Z,40.84
2022-10-18T19:47:59.308Z,41.01
2022-10-18T19:50:45.308Z,41.22
2022-10-18T19:53:32.430Z,40.95
2022-10-18T19:56:21.428Z,41.49
2022-10-18T19:59:08.152Z,41.28
2022-10-18T20:01:54.074Z,41.27
2022-10-18T20:04:40.080Z,41.24
2022-10-18T20:07:26.081Z,41.67
2022-10-18T20:10:12.493Z,41.52
2022-10-18T20:12:58.477Z,41.87
2022-10-18T20:15:47.408Z,42.03
2022-10-18T20:18:34.040Z,42.02
2022-10-18T20:21:19.885Z,41.85
2022-10-18T20:24:06.719Z,41.76
2022-10-18T20:29:43.693Z,42.27
2022-10-18T20:32:29.620Z,42.09
2022-10-18T20:35:15.578Z,42.29
2022-10-18T20:38:01.461Z,41.94
2022-10-18T20:40:47.412Z,42.50
2022-10-18T20:43:34.364Z,42.45
2022-10-18T20:46:20.817Z,42.46
2022-10-18T20:49:07.973Z,42.43
2022-10-18T20:51:54.128Z,42.36
2022-10-18T20:54:40.049Z,42.53
2022-10-18T20:57:26.067Z,42.47
2022-10-18T21:00:13.127Z,42.97
2022-10-18T21:02:59.354Z,42.53
2022-10-18T21:05:45.147Z,42.57
2022-10-18T21:08:31.139Z,42.64
2022-10-18T21:11:17.000Z,42.81
2022-10-18T21:14:03.514Z,42.77
2022-10-18T21:16:51.232Z,42.69
2022-10-18T21:19:37.342Z,43.07
2022-10-18T21:22:26.529Z,43.20
2022-10-18T21:25:13.501Z,42.86
2022-10-18T21:27:59.555Z,43.21
2022-10-18T21:30:45.439Z,43.17
2022-10-18T21:33:31.493Z,43.34
2022-10-18T21:36:17.712Z,43.42
2022-10-18T21:39:05.040Z,43.29
2022-10-18T21:41:51.822Z,43.60
2022-10-18T21:44:37.889Z,43.47
2022-10-18T21:47:23.850Z,43.46
2022-10-18T21:50:10.319Z,43.44
2022-10-18T21:52:56.284Z,43.43
2022-10-18T21:55:42.295Z,43.54
2022-10-18T21:58:28.537Z,43.75
2022-10-18T22:01:20.148Z,43.94
2022-10-18T22:04:08.238Z,43.95
2022-10-18T22:06:55.164Z,43.78
2022-10-18T22:09:41.914Z,43.89
2022-10-18T22:12:28.532Z,43.77
2022-10-18T22:15:14.437Z,43.70
2022-10-18T22:18:00.747Z,43.93
2022-10-18T22:20:56.713Z,44.12
2022-10-18T22:23:44.871Z,44.43
2022-10-18T22:26:33.244Z,44.32
2022-10-18T22:29:20.614Z,44.37
2022-10-18T22:32:06.660Z,44.47
2022-10-18T22:34:53.125Z,44.15
2022-10-18T22:37:39.032Z,43.99
2022-10-18T22:40:25.324Z,44.28
2022-10-18T22:43:11.413Z,44.60
2022-10-18T22:46:00.673Z,44.34
2022-10-18T22:48:47.268Z,44.78
2022-10-18T22:54:24.692Z,44.77
2022-10-18T22:57:10.533Z,44.85
2022-10-18T22:59:56.290Z,44.94
2022-10-18T23:02:42.175Z,45.09
2022-10-18T23:05:28.464Z,45.21
2022-10-18T23:08:14.508Z,45.00
2022-10-18T23:11:00.560Z,45.06
2022-10-18T23:13:46.767Z,44.96
2022-10-18T23:16:33.226Z,44.90
2022-10-18T23:19:19.234Z,45.17
2022-10-18T23:22:05.217Z,45.17
2022-10-18T23:24:51.051Z,45.12
2022-10-18T23:27:36.988Z,45.01
2022-10-18T23:30:23.119Z,45.26
2022-10-18T23:33:09.270Z,45.62
2022-10-18T23:35:55.196Z,45.14
2022-10-18T23:38:41.820Z,45.49
2022-10-18T23:41:28.033Z,45.55
2022-10-18T23:44:14.723Z,45.48
2022-10-18T23:47:00.593Z,45.55
2022-10-18T23:49:46.555Z,45.25
2022-10-18T23:52:32.668Z,45.09
2022-10-18T23:55:18.448Z,45.24
2022-10-18T23:58:04.344Z,45.38
